Normed Antwerpen — V2DG9 — position and weather

sailwx.info

Track history (hours):
 
Tides and Currents Weather Stations Pressure Air Temp Water Temp Dewpoint Dewpoint Depression Visibility Wind Speed Wind Dir Waves Ship Positions

Normed Antwerpen

Last reported at 2015-Jul-02 20:31 UTC. Time now 2015-Jul-02 21:30 UTC.
Position N 51°15' E 004°24'.

Length 130 m; draft 6.2 m.

Type: Ship. MMSI: 305210993.

Date/timePositionNaut miles runAvg speedWind from/ knotsBaromVisibWave heightAir tempDewpointWater temp
2015-Jul-02 20:31N 51°15' E 004°24'0 0.0
2015-Jul-02 19:33N 51°15' E 004°24'0 0.0
2015-Jul-02 18:33N 51°15' E 004°24'0 0.0
2015-Jul-02 17:32N 51°15' E 004°24'0 0.0
2015-Jul-02 16:32N 51°15' E 004°24'0 0.0
2015-Jul-02 15:31N 51°15' E 004°24'0 0.0
2015-Jul-02 14:31N 51°15' E 004°24'0 0.0
2015-Jul-02 13:31N 51°15' E 004°24'0 0.0
2015-Jul-02 12:33N 51°15' E 004°24'0 0.0
2015-Jul-02 11:33N 51°15' E 004°24'0 0.0
2015-Jul-02 10:32N 51°15' E 004°24'0 0.0
2015-Jul-02 09:32N 51°15' E 004°24'0 0.0
2015-Jul-02 08:31N 51°15' E 004°24'0 0.0
2015-Jul-02 07:31N 51°15' E 004°24'0 0.0
2015-Jul-02 06:27N 51°15' E 004°24'0 0.0
2015-Jul-02 05:33N 51°15' E 004°24'0 0.0
2015-Jul-02 04:33N 51°15' E 004°24'0 0.0
2015-Jul-02 03:32N 51°15' E 004°24'0 0.0
2015-Jul-02 02:32N 51°15' E 004°24'0 0.0
2015-Jul-02 01:31N 51°15' E 004°24'0 0.0
2015-Jul-02 00:31N 51°15' E 004°24'0 0.0
2015-Jul-01 23:31N 51°15' E 004°24'0 0.0
2015-Jul-01 22:33N 51°15' E 004°24'0 0.0
2015-Jul-01 21:33N 51°15' E 004°24'2 1.5
2015-Jul-01 20:33N 51°16' E 004°22'1 1.4
2015-Jul-01 19:31N 51°17' E 004°21'0 0.0
2015-Jul-01 18:25N 51°17' E 004°21'0 0.0
2015-Jul-01 17:31N 51°17' E 004°21'0 0.0
2015-Jul-01 16:33N 51°17' E 004°21'0 0.0
2015-Jul-01 15:30N 51°17' E 004°21'0 0.0
2015-Jul-01 14:32N 51°17' E 004°21'0 0.0
2015-Jul-01 13:32N 51°17' E 004°21'0 0.0
2015-Jul-01 12:28N 51°17' E 004°21'0 0.0
2015-Jul-01 11:31N 51°17' E 004°21'0 0.0
2015-Jul-01 10:34N 51°17' E 004°21'0 0.0
2015-Jul-01 09:33N 51°17' E 004°21'0 0.0
2015-Jul-01 08:33N 51°17' E 004°21'0 0.0
2015-Jul-01 07:32N 51°17' E 004°21'0 0.0
2015-Jul-01 06:29N 51°17' E 004°21'0 0.0
2015-Jul-01 05:28N 51°17' E 004°21'0 0.0
2015-Jul-01 04:31N 51°17' E 004°21'0 0.0
2015-Jul-01 03:34N 51°17' E 004°21'0 0.0
2015-Jul-01 02:33N 51°17' E 004°21'0 0.0
2015-Jul-01 01:33N 51°17' E 004°21'0 0.0
2015-Jul-01 00:32N 51°17' E 004°21'0 0.0
2015-Jun-30 23:32N 51°17' E 004°21'0 0.0
2015-Jun-30 22:28N 51°17' E 004°21'0 0.0
2015-Jun-30 21:31N 51°17' E 004°21'0 0.0
2015-Jun-30 20:33N 51°17' E 004°21'0 0.0
2015-Jun-30 19:33N 51°17' E 004°21'0 0.0
2015-Jun-30 18:30N 51°17' E 004°21'0 0.0
2015-Jun-30 17:32N 51°17' E 004°21'0 0.0
2015-Jun-30 16:32N 51°17' E 004°21'0 0.0
2015-Jun-30 15:31N 51°17' E 004°21'0 0.0
2015-Jun-30 14:32N 51°17' E 004°21'0 0.0
2015-Jun-30 13:33N 51°17' E 004°21'0 0.0
2015-Jun-30 12:33N 51°17' E 004°21'0 0.0
2015-Jun-30 11:33N 51°17' E 004°21'0 0.0
2015-Jun-30 10:33N 51°17' E 004°21'0 0.4
2015-Jun-30 09:33N 51°17' E 004°20'4 4.1
2015-Jun-30 08:33N 51°21' E 004°17'0 0.0
2015-Jun-30 07:33N 51°21' E 004°17'4 3.8
2015-Jun-30 06:33N 51°23' E 004°13'8 7.6
2015-Jun-30 05:33N 51°26' E 004°01'9 9.3
2015-Jun-30 04:33N 51°21' E 003°48'1010.0
2015-Jun-30 03:33N 51°25' E 003°34'1010.2
2015-Jun-30 02:33N 51°24' E 003°18'1312.8
2015-Jun-30 01:33N 51°23' E 002°58'1312.9
2015-Jun-30 00:33N 51°22' E 002°37'1211.6
2015-Jun-29 23:33N 51°19' E 002°19'1313.5
2015-Jun-29 22:34N 51°12' E 002°01'1615.9
2015-Jun-29 21:34N 51°03' E 001°40'1616.0
2015-Jun-29 20:34N 50°50' E 001°25'1514.6
2015-Jun-29 19:33N 50°38' E 001°11'1514.6
2015-Jun-29 18:31N 50°30' E 000°51'1514.8
2015-Jun-29 17:32N 50°26' E 000°29'1614.7
2015-Jun-29 16:28N 50°22' E 000°05'1213.6
2015-Jun-29 15:33N 50°26' W 000°13'1613.5
2015-Jun-29 14:24N 50°33' W 000°35'1113.2
2015-Jun-29 13:33N 50°38' W 000°50'1413.7
2015-Jun-29 12:33N 50°46' W 001°09'1110.5
2015-Jun-29 11:33N 50°52' W 001°22'4 0.2
2015-Jun-28 18:06N 50°54' W 001°26'0 0.0
2015-Jun-28 17:30N 50°54' W 001°26'0 0.0
2015-Jun-28 07:19N 50°54' W 001°26'1 0.9
2015-Jun-28 06:33N 50°54' W 001°25'8 8.2
2015-Jun-28 05:33N 50°47' W 001°19'10 9.9
2015-Jun-28 04:33N 50°44' W 001°04'9 9.1
2015-Jun-28 03:34N 50°35' W 001°05'1515.0
2015-Jun-28 02:33N 50°26' W 001°24'1514.4
2015-Jun-28 01:33N 50°15' W 001°40'1313.4
2015-Jun-28 00:33N 50°07' W 001°56'1312.7
2015-Jun-27 23:34N 50°01' W 002°13'1212.1
2015-Jun-27 22:32N 49°54' W 002°29'60711.7
2015-Jun-25 18:33N 41°11' W 009°49'7813.0
2015-Jun-25 12:33N 39°52' W 009°51'2913.7
2015-Jun-25 10:28N 39°24' W 009°52'1313.7
2015-Jun-25 09:32N 39°11' W 009°52'1313.2
2015-Jun-25 08:33N 38°58' W 009°51'1413.6
2015-Jun-25 07:33N 38°44' W 009°51'1414.3
2015-Jun-25 06:33N 38°31' W 009°48'1313.4
2015-Jun-25 05:33N 38°18' W 009°44'1313.1
2015-Jun-25 04:33N 38°05' W 009°40'1312.9
2015-Jun-25 03:33N 37°52' W 009°37'1312.9
2015-Jun-25 02:32N 37°39' W 009°33'1313.1
2015-Jun-25 01:33N 37°27' W 009°28'1312.8
2015-Jun-25 00:33N 37°15' W 009°26'1312.9
2015-Jun-24 23:33N 37°02' W 009°22'3811.8
2015-Jun-24 20:22N 36°38' W 008°46'1012.7
2015-Jun-24 19:34N 36°35' W 008°33'1412.8
2015-Jun-24 18:28N 36°31' W 008°17'1312.6
2015-Jun-24 17:28N 36°27' W 008°02'12912.6
2015-Jun-24 07:16N 36°00' W 005°26'710.1
2015-Jun-24 06:33N 36°02' W 005°17'12611.1
2015-Jun-23 19:12N 36°22' W 002°43'312.2
2015-Jun-23 18:59N 36°22' W 002°40'  
Track history (hours):
 
Tides and Currents Weather Stations Pressure Air Temp Water Temp Dewpoint Dewpoint Depression Visibility Wind Speed Wind Dir Waves Ship Positions

Normed Antwerpen

Last reported at 2015-Jul-02 20:31 UTC. Time now 2015-Jul-02 21:30 UTC.
Position N 51°15' E 004°24'.

Length 130 m; draft 6.2 m.

Type: Ship. MMSI: 305210993.

Date/timePositionNaut miles runAvg speedWind from/ knotsBaromVisibWave heightAir tempDewpointWater temp
2015-Jul-02 20:31N 51°15' E 004°24'0 0.0
2015-Jul-02 19:33N 51°15' E 004°24'0 0.0
2015-Jul-02 18:33N 51°15' E 004°24'0 0.0
2015-Jul-02 17:32N 51°15' E 004°24'0 0.0
2015-Jul-02 16:32N 51°15' E 004°24'0 0.0
2015-Jul-02 15:31N 51°15' E 004°24'0 0.0
2015-Jul-02 14:31N 51°15' E 004°24'0 0.0
2015-Jul-02 13:31N 51°15' E 004°24'0 0.0
2015-Jul-02 12:33N 51°15' E 004°24'0 0.0
2015-Jul-02 11:33N 51°15' E 004°24'0 0.0
2015-Jul-02 10:32N 51°15' E 004°24'0 0.0
2015-Jul-02 09:32N 51°15' E 004°24'0 0.0
2015-Jul-02 08:31N 51°15' E 004°24'0 0.0
2015-Jul-02 07:31N 51°15' E 004°24'0 0.0
2015-Jul-02 06:27N 51°15' E 004°24'0 0.0
2015-Jul-02 05:33N 51°15' E 004°24'0 0.0
2015-Jul-02 04:33N 51°15' E 004°24'0 0.0
2015-Jul-02 03:32N 51°15' E 004°24'0 0.0
2015-Jul-02 02:32N 51°15' E 004°24'0 0.0
2015-Jul-02 01:31N 51°15' E 004°24'0 0.0
2015-Jul-02 00:31N 51°15' E 004°24'0 0.0
2015-Jul-01 23:31N 51°15' E 004°24'0 0.0
2015-Jul-01 22:33N 51°15' E 004°24'0 0.0
2015-Jul-01 21:33N 51°15' E 004°24'2 1.5
2015-Jul-01 20:33N 51°16' E 004°22'1 1.4
2015-Jul-01 19:31N 51°17' E 004°21'0 0.0
2015-Jul-01 18:25N 51°17' E 004°21'0 0.0
2015-Jul-01 17:31N 51°17' E 004°21'0 0.0
2015-Jul-01 16:33N 51°17' E 004°21'0 0.0
2015-Jul-01 15:30N 51°17' E 004°21'0 0.0
2015-Jul-01 14:32N 51°17' E 004°21'0 0.0
2015-Jul-01 13:32N 51°17' E 004°21'0 0.0
2015-Jul-01 12:28N 51°17' E 004°21'0 0.0
2015-Jul-01 11:31N 51°17' E 004°21'0 0.0
2015-Jul-01 10:34N 51°17' E 004°21'0 0.0
2015-Jul-01 09:33N 51°17' E 004°21'0 0.0
2015-Jul-01 08:33N 51°17' E 004°21'0 0.0
2015-Jul-01 07:32N 51°17' E 004°21'0 0.0
2015-Jul-01 06:29N 51°17' E 004°21'0 0.0
2015-Jul-01 05:28N 51°17' E 004°21'0 0.0
2015-Jul-01 04:31N 51°17' E 004°21'0 0.0
2015-Jul-01 03:34N 51°17' E 004°21'0 0.0
2015-Jul-01 02:33N 51°17' E 004°21'0 0.0
2015-Jul-01 01:33N 51°17' E 004°21'0 0.0
2015-Jul-01 00:32N 51°17' E 004°21'0 0.0
2015-Jun-30 23:32N 51°17' E 004°21'0 0.0
2015-Jun-30 22:28N 51°17' E 004°21'0 0.0
2015-Jun-30 21:31N 51°17' E 004°21'0 0.0
2015-Jun-30 20:33N 51°17' E 004°21'0 0.0
2015-Jun-30 19:33N 51°17' E 004°21'0 0.0
2015-Jun-30 18:30N 51°17' E 004°21'0 0.0
2015-Jun-30 17:32N 51°17' E 004°21'0 0.0
2015-Jun-30 16:32N 51°17' E 004°21'0 0.0
2015-Jun-30 15:31N 51°17' E 004°21'0 0.0
2015-Jun-30 14:32N 51°17' E 004°21'0 0.0
2015-Jun-30 13:33N 51°17' E 004°21'0 0.0
2015-Jun-30 12:33N 51°17' E 004°21'0 0.0
2015-Jun-30 11:33N 51°17' E 004°21'0 0.0
2015-Jun-30 10:33N 51°17' E 004°21'0 0.4
2015-Jun-30 09:33N 51°17' E 004°20'4 4.1
2015-Jun-30 08:33N 51°21' E 004°17'0 0.0
2015-Jun-30 07:33N 51°21' E 004°17'4 3.8
2015-Jun-30 06:33N 51°23' E 004°13'8 7.6
2015-Jun-30 05:33N 51°26' E 004°01'9 9.3
2015-Jun-30 04:33N 51°21' E 003°48'1010.0
2015-Jun-30 03:33N 51°25' E 003°34'1010.2
2015-Jun-30 02:33N 51°24' E 003°18'1312.8
2015-Jun-30 01:33N 51°23' E 002°58'1312.9
2015-Jun-30 00:33N 51°22' E 002°37'1211.6
2015-Jun-29 23:33N 51°19' E 002°19'1313.5
2015-Jun-29 22:34N 51°12' E 002°01'1615.9
2015-Jun-29 21:34N 51°03' E 001°40'1616.0
2015-Jun-29 20:34N 50°50' E 001°25'1514.6
2015-Jun-29 19:33N 50°38' E 001°11'1514.6
2015-Jun-29 18:31N 50°30' E 000°51'1514.8
2015-Jun-29 17:32N 50°26' E 000°29'1614.7
2015-Jun-29 16:28N 50°22' E 000°05'1213.6
2015-Jun-29 15:33N 50°26' W 000°13'1613.5
2015-Jun-29 14:24N 50°33' W 000°35'1113.2
2015-Jun-29 13:33N 50°38' W 000°50'1413.7
2015-Jun-29 12:33N 50°46' W 001°09'1110.5
2015-Jun-29 11:33N 50°52' W 001°22'4 0.2
2015-Jun-28 18:06N 50°54' W 001°26'0 0.0
2015-Jun-28 17:30N 50°54' W 001°26'0 0.0
2015-Jun-28 07:19N 50°54' W 001°26'1 0.9
2015-Jun-28 06:33N 50°54' W 001°25'8 8.2
2015-Jun-28 05:33N 50°47' W 001°19'10 9.9
2015-Jun-28 04:33N 50°44' W 001°04'9 9.1
2015-Jun-28 03:34N 50°35' W 001°05'1515.0
2015-Jun-28 02:33N 50°26' W 001°24'1514.4
2015-Jun-28 01:33N 50°15' W 001°40'1313.4
2015-Jun-28 00:33N 50°07' W 001°56'1312.7
2015-Jun-27 23:34N 50°01' W 002°13'1212.1
2015-Jun-27 22:32N 49°54' W 002°29'60711.7
2015-Jun-25 18:33N 41°11' W 009°49'7813.0
2015-Jun-25 12:33N 39°52' W 009°51'2913.7
2015-Jun-25 10:28N 39°24' W 009°52'1313.7
2015-Jun-25 09:32N 39°11' W 009°52'1313.2
2015-Jun-25 08:33N 38°58' W 009°51'1413.6
2015-Jun-25 07:33N 38°44' W 009°51'1414.3
2015-Jun-25 06:33N 38°31' W 009°48'1313.4
2015-Jun-25 05:33N 38°18' W 009°44'1313.1
2015-Jun-25 04:33N 38°05' W 009°40'1312.9
2015-Jun-25 03:33N 37°52' W 009°37'1312.9
2015-Jun-25 02:32N 37°39' W 009°33'1313.1
2015-Jun-25 01:33N 37°27' W 009°28'1312.8
2015-Jun-25 00:33N 37°15' W 009°26'1312.9
2015-Jun-24 23:33N 37°02' W 009°22'3811.8
2015-Jun-24 20:22N 36°38' W 008°46'1012.7
2015-Jun-24 19:34N 36°35' W 008°33'1412.8
2015-Jun-24 18:28N 36°31' W 008°17'1312.6
2015-Jun-24 17:28N 36°27' W 008°02'12912.6
2015-Jun-24 07:16N 36°00' W 005°26'710.1
2015-Jun-24 06:33N 36°02' W 005°17'12611.1
2015-Jun-23 19:12N 36°22' W 002°43'312.2
2015-Jun-23 18:59N 36°22' W 002°40'  

Dump ship's entire track history